Time;durP1;ratioP1;P1;durP2;ratioP2;P2;SDS_P1;SDS_P2;PMS_P1;PMS_P2;Temp;Humidity;BMP_temperature;BMP_pressure;BME280_temperature;BME280_humidity;BME280_pressure;Samples;Min_cycle;Max_cycle;Signal;HPM_P1;HPM_P2
2023/03/11 00:00:29;;;;;;;1.50;1.40;;;5.10;1.00;;;;;;5032680;28;20481;-76
2023/03/11 00:02:59;;;;;;;2.00;1.50;;;5.10;99.90;;;;;;5051257;28;20389;-76
2023/03/11 00:05:27;;;;;;;1.50;1.40;;;5.10;99.90;;;;;;5050010;28;20526;-76
2023/03/11 00:07:54;;;;;;;2.30;1.60;;;5.60;99.90;;;;;;5031273;28;20904;-76
2023/03/11 00:10:40;;;;;;;1.60;1.30;;;5.10;99.90;;;;;;5030818;28;20754;-76
2023/03/11 00:13:08;;;;;;;2.10;1.40;;;5.00;99.90;;;;;;5013038;28;20521;-76
2023/03/11 00:15:35;;;;;;;1.52;1.10;;;5.00;1.00;;;;;;5012562;28;20391;-76
2023/03/11 00:18:01;;;;;;;1.50;1.38;;;5.00;99.90;;;;;;5042184;28;20393;-77
2023/03/11 00:20:29;;;;;;;3.53;1.80;;;4.90;1.00;;;;;;5050454;28;20495;-76
2023/03/11 00:22:55;;;;;;;1.50;1.35;;;5.00;1.00;;;;;;5032945;28;20377;-76
2023/03/11 00:25:23;;;;;;;1.40;1.30;;;5.00;99.90;;;;;;5050337;28;20409;-76
2023/03/11 00:27:48;;;;;;;1.30;1.10;;;5.00;99.90;;;;;;5050671;28;20755;-77
2023/03/11 00:30:15;;;;;;;1.60;1.40;;;4.90;66.90;;;;;;5050531;28;20382;-76
2023/03/11 00:32:40;;;;;;;1.70;1.33;;;4.90;1.00;;;;;;5051099;28;20381;-76
2023/03/11 00:35:07;;;;;;;2.03;1.20;;;5.00;1.00;;;;;;5050184;28;20811;-76
2023/03/11 00:37:33;;;;;;;1.38;1.20;;;4.90;1.00;;;;;;5050136;28;20458;-77
2023/03/11 00:39:59;;;;;;;1.50;1.25;;;4.90;1.00;;;;;;5050287;28;20389;-76
2023/03/11 00:42:24;;;;;;;2.00;1.40;;;5.00;97.90;;;;;;5033205;28;20526;-77
2023/03/11 00:44:50;;;;;;;1.20;1.10;;;4.90;1.00;;;;;;5050417;28;20503;-76
2023/03/11 00:47:16;;;;;;;1.53;1.23;;;4.90;1.00;;;;;;5050260;28;20451;-77
2023/03/11 00:49:42;;;;;;;2.20;1.40;;;4.80;99.90;;;;;;5049855;28;20425;-76
2023/03/11 00:52:07;;;;;;;1.20;1.10;;;4.90;1.00;;;;;;5032154;28;20393;-76
2023/03/11 00:54:33;;;;;;;2.25;1.30;;;4.90;44.70;;;;;;5032323;28;20401;-77
2023/03/11 00:56:58;;;;;;;1.27;0.90;;;4.80;99.90;;;;;;5044983;28;20387;-76
2023/03/11 00:59:24;;;;;;;1.77;1.40;;;4.80;99.90;;;;;;5012457;28;20403;-77
2023/03/11 01:01:50;;;;;;;1.90;1.40;;;4.70;1.00;;;;;;5031199;28;20386;-77
2023/03/11 01:04:16;;;;;;;1.30;1.20;;;4.70;1.00;;;;;;5013045;28;20426;-77
2023/03/11 01:06:41;;;;;;;1.20;1.10;;;4.80;99.90;;;;;;5038449;28;20804;-77
2023/03/11 01:09:07;;;;;;;1.20;1.10;;;4.80;9.20;;;;;;5032577;28;20830;-77
2023/03/11 01:11:32;;;;;;;2.38;0.90;;;4.80;1.00;;;;;;5032285;28;20393;-77
2023/03/11 01:13:58;;;;;;;1.20;0.80;;;4.80;1.00;;;;;;5050306;28;20436;-76
2023/03/11 01:16:23;;;;;;;1.58;1.00;;;4.70;99.90;;;;;;5032134;28;20385;-76
2023/03/11 01:18:49;;;;;;;0.80;0.80;;;4.70;99.90;;;;;;5049927;28;20484;-77
2023/03/11 01:21:14;;;;;;;1.70;0.80;;;4.60;1.00;;;;;;5050307;28;20377;-77
2023/03/11 01:23:41;;;;;;;1.30;0.90;;;4.70;99.90;;;;;;5050103;28;20789;-76
2023/03/11 01:26:07;;;;;;;1.90;1.20;;;4.60;99.90;;;;;;5031540;28;20450;-76
2023/03/11 01:28:33;;;;;;;0.80;0.80;;;4.50;1.00;;;;;;5049460;28;20401;-76
2023/03/11 01:30:59;;;;;;;2.63;0.83;;;4.40;99.90;;;;;;5052296;28;21173;-76
2023/03/11 01:33:24;;;;;;;1.00;0.70;;;4.40;99.90;;;;;;5053560;28;20426;-76
2023/03/11 01:35:50;;;;;;;1.20;0.70;;;4.50;99.90;;;;;;5053396;28;20381;-76
2023/03/11 01:38:16;;;;;;;1.97;0.80;;;4.50;99.90;;;;;;5054018;28;20474;-76
2023/03/11 01:40:46;;;;;;;1.50;0.80;;;4.50;99.90;;;;;;5053012;28;20389;-76
2023/03/11 01:43:42;;;;;;;1.00;0.88;;;4.50;1.00;;;;;;5054455;28;20381;-76
2023/03/11 01:46:13;;;;;;;1.20;0.87;;;4.50;1.00;;;;;;5052841;28;20925;-76
2023/03/11 01:48:41;;;;;;;1.40;1.00;;;4.40;1.00;;;;;;5053763;28;20377;-76
2023/03/11 01:51:07;;;;;;;2.63;0.93;;;4.50;1.00;;;;;;5035453;28;20489;-76
2023/03/11 01:53:33;;;;;;;1.40;1.00;;;4.40;1.00;;;;;;5035566;28;20877;-76
2023/03/11 01:56:02;;;;;;;1.63;1.15;;;4.40;1.00;;;;;;5034714;28;20402;-76
2023/03/11 01:58:34;;;;;;;1.00;0.90;;;4.40;99.90;;;;;;5036268;28;20387;-76
2023/03/11 02:01:01;;;;;;;1.27;0.95;;;4.40;99.90;;;;;;5015618;28;20814;-76
2023/03/11 02:03:31;;;;;;;1.70;1.00;;;4.30;1.00;;;;;;5048032;28;20400;-76
2023/03/11 02:05:59;;;;;;;1.50;1.00;;;4.30;1.00;;;;;;5052589;28;20393;-76
2023/03/11 02:08:25;;;;;;;1.52;1.10;;;4.30;1.00;;;;;;5052981;28;20377;-76
2023/03/11 02:10:52;;;;;;;1.33;0.90;;;4.30;1.00;;;;;;5035050;28;20463;-76
2023/03/11 02:13:18;;;;;;;1.00;0.85;;;4.30;1.00;;;;;;5053601;28;20872;-76
2023/03/11 02:15:44;;;;;;;1.50;1.10;;;4.20;99.90;;;;;;5052608;28;20464;-76
2023/03/11 02:18:13;;;;;;;1.33;1.23;;;4.10;99.90;;;;;;5053122;28;20466;-76
2023/03/11 02:20:49;;;;;;;1.40;1.20;;;4.10;15.70;;;;;;5035359;28;20809;-77
2023/03/11 02:23:17;;;;;;;1.40;1.00;;;4.10;66.10;;;;;;5052893;28;20484;-78
2023/03/11 02:26:00;;;;;;;1.30;1.10;;;4.10;99.90;;;;;;5034495;28;20816;-75
2023/03/11 02:28:27;;;;;;;2.63;1.30;;;4.10;1.00;;;;;;5052527;28;20391;-76
2023/03/11 02:30:54;;;;;;;1.52;1.02;;;4.10;99.90;;;;;;5052121;28;20802;-76
2023/03/11 02:33:22;;;;;;;2.50;1.10;;;4.10;1.00;;;;;;5052155;28;20405;-77
2023/03/11 02:35:47;;;;;;;1.00;0.80;;;4.10;99.90;;;;;;5051944;28;20611;-76
2023/03/11 02:38:13;;;;;;;1.80;1.17;;;4.00;99.90;;;;;;5052323;28;20381;-76
2023/03/11 02:40:58;;;;;;;1.70;1.30;;;4.10;99.90;;;;;;5033892;28;20485;-76
2023/03/11 02:43:45;;;;;;;2.58;1.30;;;4.00;1.00;;;;;;5034152;28;20484;-76
2023/03/11 02:46:12;;;;;;;1.73;1.08;;;4.10;99.90;;;;;;5051518;28;20381;-75
2023/03/11 02:48:38;;;;;;;0.93;0.80;;;4.00;1.00;;;;;;5051796;28;20378;-76
2023/03/11 02:51:04;;;;;;;1.98;1.10;;;4.10;1.00;;;;;;5052169;28;20914;-76
2023/03/11 02:53:34;;;;;;;1.35;1.00;;;4.10;1.00;;;;;;5052832;28;20397;-77
2023/03/11 02:55:59;;;;;;;1.45;0.70;;;4.40;31.60;;;;;;5057048;28;20382;-76
2023/03/11 02:58:25;;;;;;;1.70;0.90;;;4.10;99.90;;;;;;5039447;28;20861;-77
2023/03/11 03:00:51;;;;;;;3.50;1.00;;;4.00;99.90;;;;;;5057939;28;20839;-77
2023/03/11 03:03:16;;;;;;;1.30;1.00;;;3.90;1.00;;;;;;5056347;28;20400;-77
2023/03/11 03:05:42;;;;;;;1.60;1.10;;;4.00;99.90;;;;;;5052390;28;20451;-77
2023/03/11 03:08:07;;;;;;;1.10;1.00;;;3.80;1.00;;;;;;5052479;28;20389;-77
2023/03/11 03:10:33;;;;;;;3.90;1.17;;;3.90;99.90;;;;;;5052420;28;20867;-76
2023/03/11 03:12:58;;;;;;;1.90;1.10;;;3.90;99.90;;;;;;5035259;28;20386;-76
2023/03/11 03:15:24;;;;;;;1.50;1.00;;;3.90;99.90;;;;;;5052236;28;20378;-76
2023/03/11 03:17:50;;;;;;;2.50;1.20;;;3.80;99.90;;;;;;5051874;28;20393;-77
2023/03/11 03:20:17;;;;;;;1.70;1.25;;;3.90;1.00;;;;;;5051543;28;20408;-77
2023/03/11 03:22:43;;;;;;;3.17;1.30;;;3.90;99.90;;;;;;5051825;28;20890;-77
2023/03/11 03:25:09;;;;;;;1.80;1.20;;;3.80;1.00;;;;;;5051855;28;20408;-77
2023/03/11 03:27:35;;;;;;;1.90;1.40;;;3.70;1.00;;;;;;5051177;28;20435;-77
2023/03/11 03:30:01;;;;;;;1.80;1.42;;;3.70;9.70;;;;;;5051611;28;20464;-77
2023/03/11 03:32:27;;;;;;;1.30;1.20;;;3.70;99.90;;;;;;5051355;28;20389;-77
2023/03/11 03:34:57;;;;;;;1.30;1.20;;;3.60;99.90;;;;;;5051340;28;20386;-77
2023/03/11 03:37:24;;;;;;;2.35;1.10;;;3.60;99.90;;;;;;5033417;28;20887;-77
2023/03/11 03:39:50;;;;;;;2.08;1.50;;;3.60;1.00;;;;;;5051116;28;20458;-77
2023/03/11 03:42:15;;;;;;;2.40;1.33;;;3.60;99.90;;;;;;5051207;28;21027;-77
2023/03/11 03:44:41;;;;;;;2.83;1.60;;;3.80;1.00;;;;;;5033587;28;20444;-77
2023/03/11 03:47:06;;;;;;;2.03;1.40;;;3.70;99.90;;;;;;5050754;28;20396;-76
2023/03/11 03:49:32;;;;;;;1.60;1.20;;;3.70;1.00;;;;;;5050681;28;20397;-77
2023/03/11 03:51:57;;;;;;;2.00;1.70;;;3.70;99.90;;;;;;5033226;28;20476;-77
2023/03/11 03:54:23;;;;;;;1.90;1.50;;;3.60;1.00;;;;;;5050044;28;20389;-77
2023/03/11 03:56:48;;;;;;;2.73;1.80;;;3.60;1.00;;;;;;5050740;28;20389;-77
2023/03/11 03:59:14;;;;;;;2.40;1.60;;;3.50;99.90;;;;;;5050921;28;20385;-77
2023/03/11 04:01:39;;;;;;;1.60;1.50;;;3.50;1.00;;;;;;5032955;28;20389;-77
2023/03/11 04:04:05;;;;;;;2.80;1.80;;;3.60;58.50;;;;;;5032491;28;20433;-77
2023/03/11 04:06:30;;;;;;;1.93;1.67;;;3.60;47.80;;;;;;5050583;28;20484;-77
2023/03/11 04:08:56;;;;;;;2.10;1.80;;;3.60;1.00;;;;;;5050994;28;20981;-77
2023/03/11 04:11:21;;;;;;;3.23;1.63;;;3.60;1.00;;;;;;5032723;28;20471;-77
2023/03/11 04:13:47;;;;;;;2.77;1.60;;;3.50;1.00;;;;;;5050826;28;20489;-77
2023/03/11 04:16:17;;;;;;;1.93;1.30;;;3.40;1.00;;;;;;5050536;28;20737;-77
2023/03/11 04:18:43;;;;;;;2.88;1.70;;;3.40;99.90;;;;;;5050759;28;20405;-77
2023/03/11 04:21:08;;;;;;;2.17;1.50;;;3.40;99.90;;;;;;5050924;28;20455;-77
2023/03/11 04:23:34;;;;;;;1.80;1.60;;;3.40;99.90;;;;;;5051867;28;20400;-77
2023/03/11 04:26:01;;;;;;;2.03;1.83;;;3.40;99.90;;;;;;5052932;28;20385;-77
2023/03/11 04:28:26;;;;;;;3.03;1.50;;;3.40;1.00;;;;;;5053542;28;20386;-77
2023/03/11 04:30:52;;;;;;;2.23;1.50;;;3.40;20.20;;;;;;5051332;28;20794;-77
2023/03/11 04:33:18;;;;;;;1.70;1.40;;;3.40;10.00;;;;;;5051139;28;20392;-77
2023/03/11 04:35:43;;;;;;;2.47;1.47;;;3.50;1.00;;;;;;5033206;28;20760;-77
2023/03/11 04:38:09;;;;;;;1.53;1.23;;;3.40;99.90;;;;;;5033236;28;20926;-77
2023/03/11 04:40:36;;;;;;;1.67;1.50;;;3.40;99.90;;;;;;5051154;28;20474;-77
2023/03/11 04:43:02;;;;;;;1.50;1.40;;;3.40;99.90;;;;;;5050803;28;20480;-77
2023/03/11 04:45:27;;;;;;;2.10;1.33;;;3.30;99.90;;;;;;5050784;28;20539;-77
2023/03/11 04:47:53;;;;;;;1.80;1.43;;;3.30;2.80;;;;;;5050969;28;20480;-77
2023/03/11 04:50:18;;;;;;;2.67;1.90;;;3.20;1.00;;;;;;5050968;28;20471;-77
2023/03/11 04:52:44;;;;;;;2.47;1.60;;;3.20;1.00;;;;;;5050914;28;20384;-77
2023/03/11 04:55:12;;;;;;;2.50;1.80;;;3.20;1.00;;;;;;5050902;28;20469;-77
2023/03/11 04:57:38;;;;;;;3.50;1.48;;;3.30;1.00;;;;;;5050378;28;20404;-77
2023/03/11 05:00:14;;;;;;;3.20;1.50;;;3.30;1.00;;;;;;5051045;28;20393;-76
2023/03/11 05:02:40;;;;;;;2.03;1.40;;;3.30;47.60;;;;;;5050965;28;20886;-77
2023/03/11 05:05:07;;;;;;;2.55;1.80;;;3.40;1.00;;;;;;5057251;28;20397;-77
2023/03/11 05:07:34;;;;;;;1.40;1.20;;;3.40;1.00;;;;;;5058211;28;20425;-76
2023/03/11 05:09:59;;;;;;;3.20;1.60;;;3.20;1.00;;;;;;5054036;28;20397;-76
2023/03/11 05:12:25;;;;;;;2.30;1.50;;;3.30;99.90;;;;;;5054219;28;20406;-76
2023/03/11 05:14:50;;;;;;;1.57;1.33;;;3.10;99.90;;;;;;5054758;28;20859;-76
2023/03/11 05:17:18;;;;;;;4.77;1.67;;;3.00;1.00;;;;;;5054120;28;20477;-77
2023/03/11 05:19:43;;;;;;;1.77;1.30;;;3.20;1.00;;;;;;5054529;28;20385;-77
2023/03/11 05:22:09;;;;;;;3.00;1.80;;;3.10;99.90;;;;;;5054627;28;20518;-77
2023/03/11 05:24:36;;;;;;;2.08;1.40;;;3.30;1.00;;;;;;5054219;28;20397;-76
2023/03/11 05:27:02;;;;;;;2.33;1.50;;;3.40;1.00;;;;;;5053529;28;20400;-77
2023/03/11 05:29:28;;;;;;;1.52;1.42;;;3.30;99.90;;;;;;5053155;28;20902;-77
2023/03/11 05:31:54;;;;;;;1.37;1.27;;;3.30;99.90;;;;;;5053103;28;20476;-77
2023/03/11 05:34:20;;;;;;;3.40;1.70;;;3.30;7.40;;;;;;5053662;28;20927;-77
2023/03/11 05:36:45;;;;;;;2.70;1.40;;;3.30;1.00;;;;;;5053487;28;20863;-76
2023/03/11 05:39:11;;;;;;;1.50;1.10;;;3.20;99.90;;;;;;5053767;28;20454;-77
2023/03/11 05:41:37;;;;;;;2.40;1.30;;;3.30;99.90;;;;;;5035649;28;20401;-76
2023/03/11 05:44:03;;;;;;;2.80;1.50;;;3.30;99.90;;;;;;5035780;28;20479;-76
2023/03/11 05:46:28;;;;;;;2.40;1.40;;;3.10;1.00;;;;;;5053540;28;20397;-77
2023/03/11 05:48:54;;;;;;;2.00;1.20;;;3.10;1.00;;;;;;5053927;28;20856;-77
2023/03/11 05:51:20;;;;;;;1.90;1.30;;;3.00;99.90;;;;;;5053612;28;20385;-77
2023/03/11 05:53:47;;;;;;;2.20;1.30;;;3.10;1.00;;;;;;5053552;28;20393;-77
2023/03/11 05:56:18;;;;;;;2.08;1.30;;;3.00;99.90;;;;;;5052577;28;20404;-76
2023/03/11 05:58:44;;;;;;;2.35;1.40;;;3.10;1.00;;;;;;5053347;28;20907;-76
2023/03/11 06:01:11;;;;;;;1.30;1.20;;;3.10;99.90;;;;;;5053442;28;20432;-76
2023/03/11 06:03:38;;;;;;;2.15;1.13;;;3.20;99.90;;;;;;5053375;28;20409;-76
2023/03/11 06:06:05;;;;;;;1.75;1.00;;;3.20;99.90;;;;;;5035238;28;20397;-76
2023/03/11 06:08:33;;;;;;;1.60;1.17;;;3.10;1.00;;;;;;5053279;28;20377;-76
2023/03/11 06:11:07;;;;;;;1.52;1.33;;;3.30;1.00;;;;;;5052915;28;20458;-76
2023/03/11 06:13:33;;;;;;;4.75;1.48;;;3.10;99.90;;;;;;5039205;28;20417;-76
2023/03/11 06:15:59;;;;;;;1.45;1.00;;;3.10;99.90;;;;;;5037501;28;20931;-76
2023/03/11 06:18:25;;;;;;;1.60;1.30;;;3.10;1.00;;;;;;5027328;28;20394;-76
2023/03/11 06:20:51;;;;;;;2.70;1.40;;;3.00;99.90;;;;;;5023162;28;20405;-75
2023/03/11 06:23:17;;;;;;;1.60;1.30;;;2.90;1.00;;;;;;5043689;28;20386;-76
2023/03/11 06:25:42;;;;;;;2.70;1.60;;;3.00;58.40;;;;;;5045806;28;20386;-77
2023/03/11 06:28:08;;;;;;;4.10;1.30;;;3.00;99.90;;;;;;5056214;28;20771;-78
2023/03/11 06:30:33;;;;;;;3.20;1.40;;;3.10;1.00;;;;;;5043426;28;20449;-77
2023/03/11 06:32:59;;;;;;;2.00;1.13;;;3.30;1.00;;;;;;5031944;28;20387;-77
2023/03/11 06:35:24;;;;;;;2.03;1.07;;;3.30;1.00;;;;;;5043585;28;20390;-77
2023/03/11 06:37:50;;;;;;;1.70;1.13;;;3.20;94.90;;;;;;5050601;28;20464;-77
2023/03/11 06:40:16;;;;;;;2.37;1.20;;;3.40;99.90;;;;;;5047169;28;20425;-77
2023/03/11 06:42:45;;;;;;;1.30;0.82;;;3.40;1.00;;;;;;5046279;28;20389;-77
2023/03/11 06:45:10;;;;;;;2.72;1.20;;;3.40;1.00;;;;;;5049030;28;20397;-77
2023/03/11 06:47:36;;;;;;;3.50;1.40;;;3.30;1.00;;;;;;5042552;28;20401;-77
2023/03/11 06:50:05;;;;;;;1.73;1.30;;;3.20;1.00;;;;;;5034402;28;20490;-77
2023/03/11 06:52:31;;;;;;;1.75;1.10;;;3.30;1.00;;;;;;5040541;28;20386;-77
2023/03/11 06:54:56;;;;;;;1.80;1.00;;;3.40;1.00;;;;;;5055366;28;20385;-77
2023/03/11 06:57:22;;;;;;;2.60;1.10;;;3.40;1.00;;;;;;5042781;28;20406;-77
2023/03/11 06:59:48;;;;;;;3.37;1.23;;;3.30;1.00;;;;;;5024439;28;20436;-77
2023/03/11 07:02:15;;;;;;;2.35;1.00;;;3.40;1.00;;;;;;5041021;28;20412;-77
2023/03/11 07:04:40;;;;;;;1.73;1.00;;;3.30;1.00;;;;;;5038724;28;20473;-77
2023/03/11 07:07:06;;;;;;;1.80;1.20;;;3.30;1.00;;;;;;5032889;28;20391;-77
2023/03/11 07:09:31;;;;;;;1.33;1.10;;;3.30;1.00;;;;;;5034761;28;20777;-77
2023/03/11 07:11:57;;;;;;;3.50;1.10;;;3.40;1.00;;;;;;5053432;28;20911;-77
2023/03/11 07:14:23;;;;;;;2.40;1.00;;;3.50;99.90;;;;;;5050846;28;20394;-77
2023/03/11 07:16:48;;;;;;;3.65;1.00;;;3.50;1.00;;;;;;5046177;28;20406;-77
2023/03/11 07:19:14;;;;;;;1.00;0.90;;;3.60;99.90;;;;;;5042465;28;20392;-78
2023/03/11 07:21:40;;;;;;;1.60;0.90;;;3.50;1.00;;;;;;5041582;28;20405;-77
2023/03/11 07:24:06;;;;;;;2.60;1.00;;;3.50;1.00;;;;;;5030360;28;20425;-77
2023/03/11 07:26:34;;;;;;;2.63;1.10;;;3.60;99.90;;;;;;5044378;28;20398;-76
2023/03/11 07:29:00;;;;;;;3.70;1.13;;;3.60;1.00;;;;;;5024115;28;20929;-77
2023/03/11 07:31:28;;;;;;;2.10;1.00;;;3.70;1.00;;;;;;5041159;28;20383;-78
2023/03/11 07:33:55;;;;;;;2.88;1.30;;;3.70;99.90;;;;;;5032072;28;20397;-77
2023/03/11 07:36:23;;;;;;;1.88;1.00;;;3.50;1.00;;;;;;5033745;28;20395;-77
2023/03/11 07:38:54;;;;;;;1.90;1.00;;;3.40;99.90;;;;;;5045905;28;20405;-77
2023/03/11 07:41:20;;;;;;;2.17;1.08;;;3.70;1.00;;;;;;5034951;28;20413;-77
2023/03/11 07:43:45;;;;;;;1.80;1.10;;;3.50;99.90;;;;;;5034362;28;20772;-77
2023/03/11 07:46:17;;;;;;;1.60;1.00;;;3.20;1.00;;;;;;5052604;28;20388;-77
2023/03/11 07:48:44;;;;;;;1.92;1.00;;;3.30;1.00;;;;;;5035384;28;20920;-77
2023/03/11 07:51:12;;;;;;;2.25;1.10;;;3.40;97.10;;;;;;5053690;28;20534;-77
2023/03/11 07:53:39;;;;;;;2.03;0.85;;;3.50;4.90;;;;;;5052993;28;20389;-77
2023/03/11 07:56:06;;;;;;;1.30;1.00;;;3.70;99.90;;;;;;5052239;28;20393;-77
2023/03/11 07:58:32;;;;;;;3.13;1.00;;;3.70;1.00;;;;;;5053283;28;20831;-78
2023/03/11 08:01:04;;;;;;;3.10;1.02;;;3.50;1.00;;;;;;5046134;28;20395;-77
2023/03/11 08:03:29;;;;;;;1.92;1.02;;;3.50;99.90;;;;;;5045708;28;20743;-77
2023/03/11 08:05:55;;;;;;;1.60;1.00;;;3.60;1.00;;;;;;5052925;28;20389;-77
2023/03/11 08:08:20;;;;;;;2.30;1.27;;;3.70;1.00;;;;;;5044094;28;20392;-77
2023/03/11 08:10:46;;;;;;;1.20;0.90;;;3.70;99.90;;;;;;5038504;28;20404;-77
2023/03/11 08:13:11;;;;;;;2.27;1.10;;;3.70;1.00;;;;;;5043062;28;20889;-78
2023/03/11 08:15:37;;;;;;;2.10;0.90;;;3.70;1.00;;;;;;5042215;28;20402;-77
2023/03/11 08:18:04;;;;;;;1.73;1.00;;;3.80;1.00;;;;;;5043213;28;20420;-77
2023/03/11 08:20:29;;;;;;;2.50;1.00;;;3.90;1.00;;;;;;5040553;28;20414;-77
2023/03/11 08:22:55;;;;;;;1.70;0.90;;;4.00;99.90;;;;;;5030900;28;20902;-77
2023/03/11 08:25:20;;;;;;;2.05;1.02;;;3.90;99.90;;;;;;5043409;28;20415;-78
2023/03/11 08:27:46;;;;;;;2.25;1.10;;;3.90;99.90;;;;;;5055029;28;20568;-80
2023/03/11 08:30:12;;;;;;;2.80;1.00;;;4.10;99.90;;;;;;5020605;28;20389;-77
2023/03/11 08:32:38;;;;;;;5.05;1.00;;;3.80;99.90;;;;;;5046219;28;20384;-77
2023/03/11 08:35:04;;;;;;;2.40;1.30;;;3.90;99.90;;;;;;5029285;28;20476;-78
2023/03/11 08:37:30;;;;;;;2.28;1.15;;;4.10;99.90;;;;;;5050017;28;20387;-77
2023/03/11 08:39:56;;;;;;;1.90;1.00;;;4.10;99.90;;;;;;5052466;28;20396;-77
2023/03/11 08:42:21;;;;;;;2.80;1.10;;;4.10;99.90;;;;;;5043918;28;20833;-77
2023/03/11 08:44:47;;;;;;;4.20;1.30;;;4.10;99.90;;;;;;5052231;28;20413;-77
2023/03/11 08:47:12;;;;;;;9.43;6.63;;;4.00;99.90;;;;;;5035359;28;20435;-78
2023/03/11 08:49:38;;;;;;;2.33;1.10;;;4.00;99.90;;;;;;5048191;28;20401;-77
2023/03/11 08:52:04;;;;;;;1.90;1.10;;;4.20;99.90;;;;;;5050413;28;20416;-77
2023/03/11 08:54:31;;;;;;;4.25;1.50;;;3.70;99.90;;;;;;5055347;28;20483;-77
2023/03/11 08:56:57;;;;;;;2.70;0.98;;;3.60;99.90;;;;;;5025824;28;20393;-77
2023/03/11 08:59:23;;;;;;;1.95;1.00;;;3.90;99.90;;;;;;5047750;28;20792;-77
2023/03/11 09:01:48;;;;;;;2.67;1.00;;;3.90;1.00;;;;;;5022505;28;20391;-76
2023/03/11 09:04:14;;;;;;;2.40;0.90;;;3.70;1.00;;;;;;5036764;28;20426;-75
2023/03/11 09:06:43;;;;;;;1.67;1.20;;;3.70;9.50;;;;;;5029012;28;20456;-77
2023/03/11 09:09:12;;;;;;;3.25;0.90;;;3.90;1.00;;;;;;5030523;28;20387;-77
2023/03/11 09:11:38;;;;;;;1.60;0.90;;;3.60;1.00;;;;;;5044733;28;20389;-76
2023/03/11 09:14:04;;;;;;;2.70;0.82;;;3.60;1.00;;;;;;5050253;28;20760;-77
2023/03/11 09:16:29;;;;;;;1.45;0.70;;;3.80;1.00;;;;;;5033011;28;20413;-76
2023/03/11 09:18:55;;;;;;;2.53;0.93;;;3.80;1.00;;;;;;5031096;28;20398;-77
2023/03/11 09:21:20;;;;;;;1.88;1.00;;;4.00;1.00;;;;;;5033668;28;20486;-78
2023/03/11 09:23:47;;;;;;;2.97;0.85;;;3.90;1.00;;;;;;5045987;28;20409;-77
2023/03/11 09:26:12;;;;;;;2.13;1.00;;;3.70;1.00;;;;;;5033635;28;20396;-77
2023/03/11 09:28:39;;;;;;;2.28;0.82;;;3.90;99.90;;;;;;5050805;28;20381;-76
2023/03/11 09:31:05;;;;;;;2.10;0.95;;;4.10;99.90;;;;;;5050715;28;20451;-80
2023/03/11 09:33:30;;;;;;;1.88;0.80;;;4.00;99.90;;;;;;5051545;28;20895;-77
2023/03/11 09:35:57;;;;;;;2.08;0.80;;;4.10;99.90;;;;;;5049752;28;20377;-76
2023/03/11 09:38:23;;;;;;;1.08;0.50;;;4.00;99.90;;;;;;5032184;28;20878;-77
2023/03/11 09:41:03;;;;;;;0.98;0.50;;;3.90;99.90;;;;;;5044940;28;20482;-76
2023/03/11 09:43:34;;;;;;;0.90;0.50;;;4.10;99.90;;;;;;5050751;28;20470;-78
2023/03/11 09:46:24;;;;;;;3.10;0.90;;;4.40;99.90;;;;;;5032405;28;20393;-78
2023/03/11 09:48:58;;;;;;;2.97;1.13;;;4.50;99.90;;;;;;5051416;28;20447;-75
2023/03/11 09:51:31;;;;;;;1.60;0.60;;;4.70;99.90;;;;;;5033215;28;20429;-76
2023/03/11 09:54:11;;;;;;;1.02;0.75;;;4.50;99.90;;;;;;5035077;28;20734;-77
2023/03/11 09:56:38;;;;;;;1.15;0.73;;;4.40;99.90;;;;;;5052295;28;20398;-77
2023/03/11 09:59:13;;;;;;;1.90;0.98;;;4.40;99.90;;;;;;5054349;28;22088;-79
2023/03/11 10:01:43;;;;;;;1.58;0.93;;;4.60;99.90;;;;;;5054395;28;20373;-77
2023/03/11 10:04:25;;;;;;;1.80;0.98;;;4.40;99.90;;;;;;5053688;28;20426;-78
2023/03/11 10:06:51;;;;;;;1.48;0.90;;;4.40;99.90;;;;;;5035564;28;20436;-78
2023/03/11 10:09:35;;;;;;;2.13;1.00;;;4.60;99.90;;;;;;5053966;28;20446;-77
2023/03/11 10:12:20;;;;;;;0.90;0.70;;;4.70;99.90;;;;;;5058666;28;20378;-79
2023/03/11 10:15:15;;;;;;;2.13;1.00;;;4.80;99.90;;;;;;5058238;28;20401;-79
2023/03/11 10:17:48;;;;;;;3.00;1.40;;;5.10;99.90;;;;;;5059130;28;20489;-79
2023/03/11 10:20:42;;;;;;;2.58;0.90;;;4.90;99.90;;;;;;5058576;28;20388;-81
2023/03/11 10:23:28;;;;;;;2.63;1.17;;;5.00;99.90;;;;;;5059110;28;20724;-81
2023/03/11 10:26:00;;;;;;;1.45;0.60;;;4.90;99.90;;;;;;5057406;28;20401;-80
2023/03/11 10:29:09;;;;;;;1.30;0.70;;;4.80;99.90;;;;;;5058936;28;20396;-80
2023/03/11 10:31:39;;;;;;;3.30;1.20;;;5.00;99.90;;;;;;5030398;28;20485;-80
2023/03/11 10:34:37;;;;;;;2.90;1.20;;;4.90;99.90;;;;;;5054832;28;20386;-80
2023/03/11 10:37:13;;;;;;;1.15;0.70;;;5.20;99.90;;;;;;5047490;28;20433;-79
2023/03/11 10:39:39;;;;;;;2.42;0.80;;;5.30;99.90;;;;;;5048137;28;20391;-77
2023/03/11 10:42:15;;;;;;;1.02;0.68;;;5.30;99.90;;;;;;5038900;28;20399;-79
2023/03/11 10:44:41;;;;;;;1.08;0.80;;;5.40;99.90;;;;;;5019821;28;20746;-79
2023/03/11 10:47:23;;;;;;;2.20;1.00;;;5.50;99.90;;;;;;5038413;28;20959;-81
2023/03/11 10:49:49;;;;;;;1.42;0.60;;;5.80;99.90;;;;;;5028159;28;20395;-81
2023/03/11 10:52:14;;;;;;;2.17;0.70;;;5.80;89.40;;;;;;5043712;28;20817;-80
2023/03/11 10:54:45;;;;;;;2.30;0.63;;;5.80;68.40;;;;;;5041113;28;20439;-80
2023/03/11 10:57:22;;;;;;;3.17;0.70;;;5.60;59.80;;;;;;5043399;28;20408;-77
2023/03/11 10:59:50;;;;;;;3.57;1.07;;;5.30;64.50;;;;;;5022860;28;20405;-78
2023/03/11 11:02:24;;;;;;;1.67;0.80;;;5.70;66.70;;;;;;5043496;28;20417;-80
2023/03/11 11:05:05;;;;;;;1.27;0.70;;;5.60;90.10;;;;;;5037436;28;20757;-81
2023/03/11 11:07:34;;;;;;;1.45;0.75;;;6.00;61.80;;;;;;5045635;28;20408;-80
2023/03/11 11:10:13;;;;;;;1.00;0.73;;;6.20;56.00;;;;;;5042159;28;20383;-81
2023/03/11 11:12:50;;;;;;;1.50;0.90;;;6.20;59.70;;;;;;5059078;28;20910;-81
2023/03/11 11:15:28;;;;;;;1.53;0.70;;;6.10;70.50;;;;;;5052223;28;20414;-81
2023/03/11 11:17:56;;;;;;;2.25;0.80;;;6.80;58.20;;;;;;5032226;28;20430;-82
2023/03/11 11:20:23;;;;;;;3.83;0.90;;;7.20;54.00;;;;;;5041523;28;20389;-81
2023/03/11 11:22:58;;;;;;;1.80;0.90;;;7.40;52.10;;;;;;5059522;28;20385;-82
2023/03/11 11:25:39;;;;;;;3.00;1.47;;;7.70;62.60;;;;;;5059095;28;20488;-82
2023/03/11 11:28:19;;;;;;;2.53;1.00;;;7.70;49.00;;;;;;5060462;28;20477;-81
2023/03/11 11:31:02;;;;;;;2.50;1.10;;;7.30;48.80;;;;;;5039088;28;20479;-82
2023/03/11 11:33:47;;;;;;;1.55;1.10;;;7.00;45.20;;;;;;5038976;28;20386;-82
2023/03/11 11:36:15;;;;;;;1.30;0.80;;;7.20;40.30;;;;;;5039108;28;20889;-82
2023/03/11 11:38:41;;;;;;;1.70;1.00;;;7.40;43.70;;;;;;5058050;28;20988;-82
2023/03/11 11:41:12;;;;;;;2.90;1.02;;;7.50;46.10;;;;;;5059959;28;20384;-80
2023/03/11 11:43:56;;;;;;;2.30;1.00;;;7.50;48.50;;;;;;5069280;28;20376;-82
2023/03/11 11:46:53;;;;;;;2.42;1.05;;;7.50;41.40;;;;;;5041546;28;20763;-82
2023/03/11 11:49:32;;;;;;;1.92;1.00;;;9.70;50.70;;;;;;5036303;28;20409;-82
2023/03/11 11:52:01;;;;;;;1.92;0.98;;;9.40;39.10;;;;;;5040517;28;20389;-80
2023/03/11 11:54:37;;;;;;;4.20;1.10;;;8.80;15.00;;;;;;5057270;28;20377;-77
2023/03/11 11:57:15;;;;;;;4.30;1.40;;;8.30;17.80;;;;;;5055178;28;20925;-78
2023/03/11 11:59:41;;;;;;;2.17;1.00;;;8.00;22.20;;;;;;5054003;28;20917;-79
2023/03/11 12:02:28;;;;;;;2.50;1.42;;;7.80;18.80;;;;;;5052405;28;20389;-78
2023/03/11 12:05:10;;;;;;;2.40;1.30;;;8.40;20.70;;;;;;5053503;28;20409;-79
2023/03/11 12:07:41;;;;;;;2.40;1.10;;;8.70;13.50;;;;;;5034536;28;20768;-78
2023/03/11 12:10:38;;;;;;;1.80;1.00;;;8.40;11.10;;;;;;5034782;28;20396;-79
2023/03/11 12:13:15;;;;;;;3.20;0.90;;;9.30;7.30;;;;;;5052704;28;20540;-78
2023/03/11 12:16:03;;;;;;;2.90;1.00;;;9.20;11.30;;;;;;5033461;28;20416;-79
2023/03/11 12:18:39;;;;;;;2.50;0.98;;;9.50;9.80;;;;;;5021088;28;20393;-79
2023/03/11 12:21:26;;;;;;;3.92;1.13;;;9.40;3.70;;;;;;5034031;28;20396;-79
2023/03/11 12:24:07;;;;;;;2.10;0.90;;;9.10;3.60;;;;;;5033467;28;20413;-78
2023/03/11 12:26:36;;;;;;;2.15;1.10;;;8.40;1.00;;;;;;5051442;28;20393;-79
2023/03/11 12:29:34;;;;;;;2.25;0.90;;;9.20;4.00;;;;;;5051291;28;20393;-79
2023/03/11 12:32:01;;;;;;;1.95;0.95;;;10.60;1.00;;;;;;5052146;28;20385;-79
2023/03/11 12:34:28;;;;;;;3.30;1.00;;;11.70;10.30;;;;;;5051980;28;20389;-78
2023/03/11 12:36:57;;;;;;;3.35;1.10;;;10.60;1.00;;;;;;5035309;28;20887;-78
2023/03/11 12:39:32;;;;;;;3.15;1.38;;;10.30;1.00;;;;;;5035626;28;20424;-78
2023/03/11 12:42:10;;;;;;;1.70;0.90;;;11.10;1.00;;;;;;5034591;28;20484;-78
2023/03/11 12:44:37;;;;;;;3.35;1.00;;;10.70;1.00;;;;;;5033930;28;20447;-79
2023/03/11 12:47:17;;;;;;;1.55;1.00;;;11.50;1.00;;;;;;5052368;28;20744;-79
2023/03/11 12:50:24;;;;;;;3.08;1.10;;;12.40;1.00;;;;;;5051858;28;20400;-79
2023/03/11 12:52:52;;;;;;;2.20;1.02;;;11.90;1.00;;;;;;5017759;28;20401;-78
2023/03/11 12:55:18;;;;;;;3.53;1.17;;;10.60;1.00;;;;;;5033692;28;20508;-78
2023/03/11 12:57:47;;;;;;;3.10;1.00;;;9.90;1.00;;;;;;5040339;28;20964;-79
2023/03/11 13:00:50;;;;;;;1.90;0.90;;;9.30;1.00;;;;;;5031181;28;20864;-79
2023/03/11 13:03:46;;;;;;;2.17;1.00;;;11.00;1.00;;;;;;5036992;28;20382;-80
2023/03/11 13:06:31;;;;;;;2.83;1.00;;;11.90;1.00;;;;;;5037276;28;20401;-77
2023/03/11 13:08:58;;;;;;;1.95;1.00;;;11.10;1.00;;;;;;5044406;28;20481;-77
2023/03/11 13:11:35;;;;;;;1.90;1.20;;;12.20;1.00;;;;;;5021738;28;20406;-77